createdAt,value
2017-06-03T00:02:06.219Z,24.38
2017-06-03T00:04:30.514Z,24.36
2017-06-03T00:06:54.901Z,24.29
2017-06-03T00:09:04.987Z,24.34
2017-06-03T00:11:29.339Z,24.4
2017-06-03T00:13:37.753Z,24.32
2017-06-03T00:15:53.641Z,24.24
2017-06-03T00:18:09.425Z,24.37
2017-06-03T00:20:25.317Z,24.25
2017-06-03T00:22:49.608Z,24.09
2017-06-03T00:25:13.905Z,24.09
2017-06-03T00:27:38.282Z,24
2017-06-03T00:30:02.586Z,24
2017-06-03T00:32:26.853Z,23.91
2017-06-03T00:34:51.145Z,23.74
2017-06-03T00:37:15.428Z,23.49
2017-06-03T00:39:39.714Z,23.48
2017-06-03T00:42:03.896Z,23.51
2017-06-03T00:44:19.687Z,23.62
2017-06-03T00:46:43.975Z,23.47
2017-06-03T00:49:08.259Z,23.44
2017-06-03T00:51:24.046Z,23.54
2017-06-03T00:53:48.338Z,23.33
2017-06-03T00:55:58.789Z,23.34
2017-06-03T00:58:23.087Z,23.18
2017-06-03T01:00:47.371Z,22.81
2017-06-03T01:03:11.656Z,22.67
2017-06-03T01:05:35.940Z,22.77
2017-06-03T01:07:46.408Z,22.8
2017-06-03T01:10:10.692Z,23.06
2017-06-03T01:12:34.978Z,22.78
2017-06-03T01:14:50.768Z,22.99
2017-06-03T01:17:14.949Z,22.67
2017-06-03T01:19:39.139Z,22.65
2017-06-03T01:22:03.315Z,22.61
2017-06-03T01:24:27.507Z,22.67
2017-06-03T01:26:51.685Z,22.77
2017-06-03T01:29:15.973Z,22.88
2017-06-03T01:31:40.159Z,23.01
2017-06-03T01:34:04.339Z,23.04
2017-06-03T01:36:28.634Z,23.18
2017-06-03T01:38:52.917Z,23.08
2017-06-03T01:41:08.706Z,23.2
2017-06-03T01:43:32.887Z,23.02
2017-06-03T01:45:57.074Z,23.01
2017-06-03T01:48:21.257Z,22.96
2017-06-03T01:50:45.439Z,22.88
2017-06-03T01:53:09.625Z,22.77
2017-06-03T01:55:16.913Z,22.96
2017-06-03T01:57:32.702Z,23.04
2017-06-03T01:59:56.885Z,22.81
2017-06-03T02:02:21.173Z,22.78
2017-06-03T02:04:36.959Z,22.81
2017-06-03T02:06:38.540Z,22.74
2017-06-03T02:09:02.799Z,22.67
2017-06-03T02:11:26.980Z,22.53
2017-06-03T02:13:51.165Z,22.62
2017-06-03T02:15:53.155Z,22.71
2017-06-03T02:18:17.415Z,22.7
2017-06-03T02:20:41.602Z,22.62
2017-06-03T02:23:05.795Z,22.61
2017-06-03T02:25:21.572Z,22.53
2017-06-03T02:27:45.755Z,22.67
2017-06-03T02:30:09.943Z,22.61
2017-06-03T02:32:11.520Z,22.7
2017-06-03T02:34:35.778Z,22.67
2017-06-03T02:36:59.966Z,22.49
2017-06-03T02:39:24.147Z,22.34
2017-06-03T02:41:25.557Z,22
2017-06-03T02:43:49.782Z,22.22
2017-06-03T02:46:13.969Z,21.89
2017-06-03T02:48:38.149Z,21.6
2017-06-03T02:51:02.329Z,21.51
2017-06-03T02:53:26.527Z,21.6
2017-06-03T02:55:50.706Z,21.43
2017-06-03T02:58:14.782Z,21.4
2017-06-03T03:00:30.474Z,21.33
2017-06-03T03:02:54.554Z,21.37
2017-06-03T03:05:18.635Z,21.68
2017-06-03T03:07:42.722Z,21.83
2017-06-03T03:10:06.814Z,21.7
2017-06-03T03:12:30.882Z,21.59
2017-06-03T03:14:46.566Z,21.81
2017-06-03T03:17:02.267Z,21.92
2017-06-03T03:19:26.434Z,22.01
2017-06-03T03:21:50.625Z,22.28
2017-06-03T03:24:14.809Z,22.38
2017-06-03T03:26:38.992Z,22.38
2017-06-03T03:29:03.070Z,22.43
2017-06-03T03:31:27.166Z,22.36
2017-06-03T03:33:51.224Z,22.38
2017-06-03T03:36:15.441Z,22.56
2017-06-03T03:38:39.489Z,22.51
2017-06-03T03:40:40.860Z,22.59
2017-06-03T03:43:05.030Z,22.71
2017-06-03T03:45:29.115Z,22.93
2017-06-03T03:47:53.298Z,23.02
2017-06-03T03:50:17.483Z,23.28
2017-06-03T03:52:41.667Z,23.36
2017-06-03T03:55:05.857Z,23.37
2017-06-03T03:57:15.786Z,23.36
2017-06-03T03:59:39.986Z,23.45
2017-06-03T04:01:55.668Z,23.79
2017-06-03T04:04:11.457Z,23.88
2017-06-03T04:06:35.739Z,24.09
2017-06-03T04:09:00.032Z,24.31
2017-06-03T04:11:24.318Z,24.46
2017-06-03T04:13:48.603Z,24.46
2017-06-03T04:16:12.893Z,24.89
2017-06-03T04:18:37.176Z,25
2017-06-03T04:21:01.465Z,24.89
2017-06-03T04:23:25.746Z,24.89
2017-06-03T04:25:50.150Z,26.04
2017-06-03T04:28:14.528Z,27.16
2017-06-03T04:30:16.019Z,28.3
2017-06-03T04:32:32.083Z,29.83
2017-06-03T04:34:34.028Z,30.32
2017-06-03T04:36:58.754Z,31.15
2017-06-03T04:39:15.041Z,31.6
2017-06-03T04:41:39.829Z,32.48
2017-06-03T04:43:56.340Z,33.04
2017-06-03T04:46:21.342Z,33.82
2017-06-03T04:48:46.449Z,34.31
2017-06-03T04:51:11.654Z,35.47
2017-06-03T04:53:28.365Z,34.6
2017-06-03T04:55:53.671Z,35.64
2017-06-03T04:58:10.585Z,37.33
2017-06-03T05:00:36.134Z,36.47
2017-06-03T05:02:46.933Z,37.82
2017-06-03T05:05:12.593Z,37.94
2017-06-03T05:07:38.336Z,37.98
2017-06-03T05:10:04.065Z,37.1
2017-06-03T05:12:29.767Z,40.08
2017-06-03T05:14:55.495Z,40.54
2017-06-03T05:17:21.298Z,39.83
2017-06-03T05:19:47.224Z,41.57
2017-06-03T05:22:13.154Z,43.54
2017-06-03T05:24:39.175Z,43.91
2017-06-03T05:27:05.322Z,44.34
2017-06-03T05:29:31.533Z,45.95
2017-06-03T05:31:57.775Z,47.76
2017-06-03T05:34:24.317Z,48.61
2017-06-03T05:36:50.690Z,49.52
2017-06-03T05:39:17.210Z,50.09
2017-06-03T05:41:43.723Z,48.96
2017-06-03T05:44:10.438Z,49.63
2017-06-03T05:46:37.139Z,50.42
2017-06-03T05:49:03.937Z,52
2017-06-03T05:51:30.708Z,53.32
2017-06-03T05:53:57.669Z,54.78
2017-06-03T05:56:24.615Z,52.29
2017-06-03T05:58:51.646Z,52.52
2017-06-03T06:01:18.706Z,49.06
2017-06-03T06:03:45.698Z,50.17
2017-06-03T06:06:12.603Z,50.17
2017-06-03T06:08:39.445Z,50.26
2017-06-03T06:10:57.814Z,50.87
2017-06-03T06:13:24.747Z,52.64
2017-06-03T06:15:51.822Z,54.24
2017-06-03T06:18:19.106Z,57.05
2017-06-03T06:20:46.226Z,54.62
2017-06-03T06:23:13.562Z,54.9
2017-06-03T06:25:41.024Z,55.81
2017-06-03T06:28:08.482Z,56.08
2017-06-03T06:30:36.052Z,53.97
2017-06-03T06:33:03.615Z,54.46
2017-06-03T06:35:31.178Z,47.04
2017-06-03T06:37:50.137Z,45.42
2017-06-03T06:40:17.807Z,44.6
2017-06-03T06:42:45.476Z,43.34
2017-06-03T06:45:13.138Z,44.18
2017-06-03T06:47:40.703Z,42.63
2017-06-03T06:50:08.091Z,42.4
2017-06-03T06:52:35.364Z,44.41
2017-06-03T06:55:02.401Z,40.85
2017-06-03T06:57:29.332Z,40.46
2017-06-03T06:59:56.059Z,39.93
2017-06-03T07:02:14.101Z,40.28
2017-06-03T07:04:32.141Z,39.6
2017-06-03T07:06:58.577Z,39.26
2017-06-03T07:09:25.017Z,40.19
2017-06-03T07:11:51.349Z,41.34
2017-06-03T07:14:17.579Z,40.81
2017-06-03T07:16:43.721Z,41.57
2017-06-03T07:19:09.737Z,40.88
2017-06-03T07:21:35.890Z,41.45
2017-06-03T07:24:02.969Z,41.1
2017-06-03T07:26:28.953Z,41.57
2017-06-03T07:28:55.010Z,42.56
2017-06-03T07:31:21.037Z,42.47
2017-06-03T07:33:47.017Z,41.91
2017-06-03T07:36:13.082Z,40.2
2017-06-03T07:38:39.193Z,40.02
2017-06-03T07:41:05.365Z,39.17
2017-06-03T07:43:25.057Z,39.17
2017-06-03T07:45:51.235Z,39.56
2017-06-03T07:48:12.966Z,38.87
2017-06-03T07:50:41.041Z,38.96
2017-06-03T07:53:07.174Z,39.41
2017-06-03T07:55:33.297Z,39.54
2017-06-03T07:57:59.354Z,38.27
2017-06-03T08:00:32.305Z,39.93
2017-06-03T08:03:05.828Z,41.55
2017-06-03T08:05:31.955Z,40.83
2017-06-03T08:07:58.204Z,41.81
2017-06-03T08:10:24.418Z,40.23
2017-06-03T08:12:50.671Z,40.67
2017-06-03T08:15:17.006Z,41.03
2017-06-03T08:17:43.231Z,41.93
2017-06-03T08:20:09.439Z,42.52
2017-06-03T08:22:35.682Z,42.49
2017-06-03T08:25:01.911Z,41.71
2017-06-03T08:27:28.257Z,42.82
2017-06-03T08:29:54.476Z,43.14
2017-06-03T08:32:20.853Z,43.49
2017-06-03T08:34:47.146Z,43.69
2017-06-03T08:37:13.487Z,44.83
2017-06-03T08:39:15.393Z,44.67
2017-06-03T08:41:41.873Z,42.93
2017-06-03T08:44:45.586Z,42.43
2017-06-03T08:47:12.026Z,42.32
2017-06-03T08:49:38.364Z,40.34
2017-06-03T08:52:04.686Z,41.53
2017-06-03T08:54:31.033Z,40.55
2017-06-03T08:56:57.371Z,41.46
2017-06-03T08:59:24.014Z,40.66
2017-06-03T09:01:51.368Z,41.58
2017-06-03T09:04:09.105Z,41.87
2017-06-03T09:06:35.438Z,41.84
2017-06-03T09:08:46.643Z,40.92
2017-06-03T09:11:04.450Z,41.71
2017-06-03T09:13:30.788Z,42.41
2017-06-03T09:15:57.122Z,41.32
2017-06-03T09:17:59.651Z,41.08
2017-06-03T09:20:26.037Z,41.61
2017-06-03T09:22:52.369Z,42.27
2017-06-03T09:25:18.698Z,41.2
2017-06-03T09:27:27.837Z,41.45
2017-06-03T09:29:54.064Z,41.33
2017-06-03T09:32:11.697Z,42.14
2017-06-03T09:34:37.832Z,42.41
2017-06-03T09:36:55.456Z,42.27
2017-06-03T09:39:13.086Z,42.97
2017-06-03T09:41:39.317Z,40.89
2017-06-03T09:44:05.552Z,41.45
2017-06-03T09:46:31.684Z,40.9
2017-06-03T09:48:42.226Z,41.29
2017-06-03T09:51:08.379Z,41.73
2017-06-03T09:53:34.882Z,42.77
2017-06-03T09:56:00.557Z,40.57
2017-06-03T09:58:26.658Z,41.04
2017-06-03T10:00:52.792Z,39.71
2017-06-03T10:03:18.927Z,38.72
2017-06-03T10:05:44.956Z,37.58
2017-06-03T10:07:47.288Z,36.97
2017-06-03T10:10:13.253Z,37.31
2017-06-03T10:12:39.075Z,36.73
2017-06-03T10:15:04.897Z,36.82
2017-06-03T10:17:30.719Z,37.03
2017-06-03T10:19:56.439Z,36.63
2017-06-03T10:22:22.159Z,36.41
2017-06-03T10:24:23.950Z,36.16
2017-06-03T10:26:49.642Z,35.78
2017-06-03T10:29:06.757Z,35.63
2017-06-03T10:31:32.264Z,34.97
2017-06-03T10:33:34.488Z,36.39
2017-06-03T10:36:00.018Z,35.32
2017-06-03T10:38:25.470Z,36.13
2017-06-03T10:40:33.865Z,36.38
2017-06-03T10:42:50.814Z,35.49
2017-06-03T10:45:07.716Z,35.05
2017-06-03T10:47:33.156Z,35.03
2017-06-03T10:49:58.633Z,35.35
2017-06-03T10:52:15.549Z,35.86
2017-06-03T10:54:40.959Z,34.96
2017-06-03T10:57:06.347Z,35.1
2017-06-03T10:59:17.201Z,34.94
2017-06-03T11:00:53.568Z,35.41
2017-06-03T11:03:19.005Z,35.13
2017-06-03T11:05:44.405Z,34.66
2017-06-03T11:08:09.733Z,34.38
2017-06-03T11:10:26.624Z,34.24
2017-06-03T11:12:51.995Z,34.53
2017-06-03T11:15:02.808Z,34.83
2017-06-03T11:17:28.215Z,34.55
2017-06-03T11:19:53.554Z,34.65
2017-06-03T11:22:18.887Z,34.88
2017-06-03T11:24:44.140Z,33.57
2017-06-03T11:27:09.395Z,34.03
2017-06-03T11:29:34.663Z,33.63
2017-06-03T11:31:59.931Z,33.92
2017-06-03T11:34:25.200Z,34.02
2017-06-03T11:36:50.450Z,35
2017-06-03T11:39:15.724Z,35.12
2017-06-03T11:41:32.487Z,35.15
2017-06-03T11:43:57.798Z,35.38
2017-06-03T11:46:23.163Z,35.66
2017-06-03T11:48:48.517Z,35.9
2017-06-03T11:51:13.895Z,35.41
2017-06-03T11:53:39.278Z,35.76
2017-06-03T11:55:56.177Z,36.51
2017-06-03T11:58:21.571Z,35.96
2017-06-03T12:00:46.939Z,35.9
2017-06-03T12:03:12.354Z,36.55
2017-06-03T12:05:22.695Z,35.93
2017-06-03T12:07:48.169Z,35.75
2017-06-03T12:10:13.603Z,36.06
2017-06-03T12:12:39.026Z,35.41
2017-06-03T12:15:04.462Z,35.41
2017-06-03T12:17:29.876Z,35.3
2017-06-03T12:19:55.262Z,35.76
2017-06-03T12:22:20.682Z,34.63
2017-06-03T12:24:46.099Z,34.19
2017-06-03T12:27:11.477Z,34.24
2017-06-03T12:29:13.814Z,34.07
2017-06-03T12:31:39.196Z,34.26
2017-06-03T12:34:04.522Z,34.66
2017-06-03T12:36:29.845Z,34.83
2017-06-03T12:38:55.167Z,34.79
2017-06-03T12:41:20.535Z,34.56
2017-06-03T12:43:45.881Z,34.1
2017-06-03T12:46:11.188Z,33.87
2017-06-03T12:48:36.521Z,34.7
2017-06-03T12:51:01.846Z,34.81
2017-06-03T12:53:27.170Z,35.31
2017-06-03T12:55:52.520Z,35.56
2017-06-03T12:58:17.866Z,35.08
2017-06-03T13:00:20.174Z,34.51
2017-06-03T13:02:45.526Z,34.79
2017-06-03T13:05:10.866Z,34.88
2017-06-03T13:07:36.232Z,35.07
2017-06-03T13:10:01.589Z,35.59
2017-06-03T13:12:26.897Z,35.54
2017-06-03T13:14:52.230Z,36.32
2017-06-03T13:17:17.462Z,36.32
2017-06-03T13:19:34.252Z,36.36
2017-06-03T13:21:59.564Z,35.44
2017-06-03T13:24:24.986Z,35.2
2017-06-03T13:26:50.319Z,34.97
2017-06-03T13:29:15.693Z,35.76
2017-06-03T13:31:41.021Z,35.93
2017-06-03T13:34:06.430Z,35.76
2017-06-03T13:36:31.745Z,35.41
2017-06-03T13:38:57.152Z,35.6
2017-06-03T13:41:22.517Z,35.13
2017-06-03T13:43:47.863Z,34.85
2017-06-03T13:46:04.771Z,34.28
2017-06-03T13:48:30.123Z,35.25
2017-06-03T13:50:55.509Z,34.94
2017-06-03T13:53:20.975Z,34.66
2017-06-03T13:55:46.216Z,34.59
2017-06-03T13:58:11.575Z,34.76
2017-06-03T14:00:36.920Z,34.63
2017-06-03T14:03:02.166Z,33.89
2017-06-03T14:05:27.489Z,33.92
2017-06-03T14:07:52.804Z,34.29
2017-06-03T14:10:18.096Z,34.43
2017-06-03T14:12:43.328Z,34.51
2017-06-03T14:15:08.624Z,33.61
2017-06-03T14:17:33.860Z,32.85
2017-06-03T14:19:59.143Z,33.12
2017-06-03T14:22:24.364Z,32.83
2017-06-03T14:24:49.605Z,33.35
2017-06-03T14:27:14.761Z,33.7
2017-06-03T14:29:39.933Z,34.35
2017-06-03T14:32:05.149Z,34.25
2017-06-03T14:34:30.328Z,33.67
2017-06-03T14:36:55.737Z,34.1
2017-06-03T14:39:20.995Z,33.73
2017-06-03T14:41:46.306Z,33.85
2017-06-03T14:44:11.612Z,33.92
2017-06-03T14:46:36.933Z,34.11
2017-06-03T14:49:02.244Z,33.81
2017-06-03T14:51:27.570Z,33.94
2017-06-03T14:53:37.805Z,34.04
2017-06-03T14:56:03.200Z,33.82
2017-06-03T14:58:28.519Z,33.79
2017-06-03T15:01:00.591Z,33.65
2017-06-03T15:03:17.402Z,34.06
2017-06-03T15:05:28.176Z,33.23
2017-06-03T15:07:53.587Z,33.85
2017-06-03T15:09:56.520Z,33.32
2017-06-03T15:12:21.883Z,33.15
2017-06-03T15:14:47.196Z,32.95
2017-06-03T15:17:12.389Z,32.54
2017-06-03T15:19:37.605Z,31.79
2017-06-03T15:22:02.818Z,32.07
2017-06-03T15:24:28.031Z,32.22
2017-06-03T15:26:53.134Z,32
2017-06-03T15:29:18.342Z,32.15
2017-06-03T15:31:43.549Z,32.73
2017-06-03T15:34:08.656Z,32.64
2017-06-03T15:36:33.762Z,32.31
2017-06-03T15:38:50.372Z,32.2
2017-06-03T15:41:15.475Z,32.75
2017-06-03T15:43:32.084Z,32.22
2017-06-03T15:45:57.190Z,31.69
2017-06-03T15:48:22.295Z,31.93
2017-06-03T15:50:47.402Z,31.7
2017-06-03T15:52:55.511Z,31.47
2017-06-03T15:55:20.515Z,31.26
2017-06-03T15:57:45.516Z,31.37
2017-06-03T16:00:10.528Z,30.88
2017-06-03T16:02:35.526Z,31.02
2017-06-03T16:05:00.529Z,30.49
2017-06-03T16:07:25.533Z,30.62
2017-06-03T16:09:50.535Z,30.56
2017-06-03T16:12:15.550Z,30.39
2017-06-03T16:14:40.439Z,30.18
2017-06-03T16:17:05.446Z,29.84
2017-06-03T16:19:21.951Z,29.74
2017-06-03T16:21:46.967Z,29.18
2017-06-03T16:23:57.618Z,28.86
2017-06-03T16:26:22.522Z,28.74
2017-06-03T16:28:47.425Z,28.82
2017-06-03T16:31:12.324Z,28.47
2017-06-03T16:33:37.121Z,28
2017-06-03T16:36:01.917Z,27.73
2017-06-03T16:38:26.724Z,27.57
2017-06-03T16:40:51.514Z,27.26
2017-06-03T16:43:16.219Z,27.26
2017-06-03T16:45:40.913Z,26.85
2017-06-03T16:48:05.609Z,26.81
2017-06-03T16:50:30.299Z,26.61
2017-06-03T16:52:46.502Z,26.42
2017-06-03T16:55:11.096Z,26.74
2017-06-03T16:57:35.695Z,26.67
2017-06-03T16:59:37.687Z,26.59
2017-06-03T17:02:02.350Z,26.55
2017-06-03T17:04:26.938Z,26.81
2017-06-03T17:06:20.469Z,26.51
2017-06-03T17:08:45.210Z,26.81
2017-06-03T17:11:09.799Z,27.03
2017-06-03T17:13:35.435Z,26.82
2017-06-03T17:16:00.049Z,27
2017-06-03T17:17:36.350Z,26.88
2017-06-03T17:21:37.203Z,26.83
2017-06-03T17:24:10.039Z,27.04
2017-06-03T17:26:33.073Z,27.4
2017-06-03T17:29:06.574Z,27.26
2017-06-03T17:31:33.223Z,27.08
2017-06-03T17:35:34.049Z,27.22
2017-06-03T17:39:26.367Z,27.16
2017-06-03T17:43:27.235Z,27.25
2017-06-03T17:45:52.893Z,26.76
2017-06-03T17:48:17.593Z,27.19
2017-06-03T17:50:40.555Z,27.34
2017-06-03T17:53:05.452Z,27.35
2017-06-03T17:55:30.151Z,27.28
2017-06-03T17:57:54.837Z,26.93
2017-06-03T18:00:19.449Z,26.82
2017-06-03T18:02:35.559Z,27.07
2017-06-03T18:05:00.119Z,27.04
2017-06-03T18:07:24.722Z,27.01
2017-06-03T18:09:49.314Z,27.01
2017-06-03T18:12:13.904Z,26.86
2017-06-03T18:14:38.503Z,26.96
2017-06-03T18:16:54.699Z,26.41
2017-06-03T18:19:05.254Z,26.49
2017-06-03T18:21:29.859Z,26.34
2017-06-03T18:23:54.452Z,26.46
2017-06-03T18:26:10.543Z,26.36
2017-06-03T18:28:26.640Z,26.07
2017-06-03T18:30:42.735Z,26.34
2017-06-03T18:33:07.361Z,26.52
2017-06-03T18:35:31.920Z,26.36
2017-06-03T18:37:48.023Z,26.22
2017-06-03T18:40:12.611Z,26.44
2017-06-03T18:42:28.705Z,26.26
2017-06-03T18:44:53.300Z,26.49
2017-06-03T18:47:17.892Z,26.46
2017-06-03T18:49:42.488Z,26.66
2017-06-03T18:51:58.587Z,26.27
2017-06-03T18:54:23.182Z,26.31
2017-06-03T18:56:47.773Z,26.42
2017-06-03T18:59:12.262Z,26.48
2017-06-03T19:01:36.750Z,26.07
2017-06-03T19:04:01.348Z,25.96
2017-06-03T19:06:25.836Z,25.77
2017-06-03T19:08:41.936Z,25.85
2017-06-03T19:11:06.428Z,25.93
2017-06-03T19:13:31.017Z,26.19
2017-06-03T19:15:55.511Z,26.45
2017-06-03T19:18:20.107Z,26.23
2017-06-03T19:20:44.709Z,26.08
2017-06-03T19:23:09.296Z,26.07
2017-06-03T19:25:33.782Z,26.04
2017-06-03T19:27:58.275Z,26.18
2017-06-03T19:30:22.763Z,26.06
2017-06-03T19:32:47.357Z,26.23
2017-06-03T19:35:11.954Z,25.86
2017-06-03T19:37:36.551Z,25.78
2017-06-03T19:40:01.045Z,25.95
2017-06-03T19:42:17.134Z,26.01
2017-06-03T19:44:41.628Z,25.8
2017-06-03T19:47:06.120Z,25.44
2017-06-03T19:49:08.087Z,25.4
2017-06-03T19:51:32.584Z,25.43
2017-06-03T19:53:57.065Z,25.7
2017-06-03T19:56:21.561Z,25.73
2017-06-03T19:58:46.049Z,25.56
2017-06-03T20:01:10.541Z,25.62
2017-06-03T20:03:35.033Z,25.55
2017-06-03T20:05:45.552Z,25.55
2017-06-03T20:07:21.870Z,25.59
2017-06-03T20:09:46.347Z,25.24
2017-06-03T20:12:10.837Z,24.94
2017-06-03T20:14:35.327Z,24.66
2017-06-03T20:16:59.820Z,24.55
2017-06-03T20:19:24.320Z,24
2017-06-03T20:21:48.703Z,23.73
2017-06-03T20:27:25.435Z,23.69
2017-06-03T20:31:17.567Z,24.31
2017-06-03T20:32:53.863Z,24.48
2017-06-03T20:35:04.366Z,24.74
2017-06-03T20:39:04.975Z,24.89
2017-06-03T20:41:15.467Z,24.99
2017-06-03T20:43:17.486Z,24.99
2017-06-03T20:47:18.084Z,24.82
2017-06-03T20:49:57.445Z,25.01
2017-06-03T20:52:22.852Z,25.06
2017-06-03T20:54:47.248Z,24.89
2017-06-03T20:57:11.653Z,24.86
2017-06-03T20:59:38.078Z,24.92
2017-06-03T21:02:02.465Z,25.07
2017-06-03T21:04:26.953Z,24.74
2017-06-03T21:06:51.437Z,24.26
2017-06-03T21:09:15.848Z,24.11
2017-06-03T21:11:40.222Z,24.13
2017-06-03T21:14:04.624Z,24.03
2017-06-03T21:16:28.996Z,24.09
2017-06-03T21:18:05.317Z,23.99
2017-06-03T21:20:29.751Z,23.95
2017-06-03T21:22:54.036Z,23.64
2017-06-03T21:25:09.929Z,23.84
2017-06-03T21:27:34.320Z,24
2017-06-03T21:29:58.715Z,23.92
2017-06-03T21:32:22.992Z,23.85
2017-06-03T21:34:38.900Z,23.77
2017-06-03T21:38:39.375Z,23.69
2017-06-03T21:41:03.717Z,23.39
2017-06-03T21:43:28.001Z,23.47
2017-06-03T21:45:52.290Z,23.4
2017-06-03T21:47:54.149Z,23.4
2017-06-03T21:50:19.560Z,23.29
2017-06-03T21:52:43.968Z,23.32
2017-06-03T21:55:08.241Z,23.29
2017-06-03T21:57:32.517Z,23.39
2017-06-03T21:59:56.811Z,23.45
2017-06-03T22:02:21.099Z,23.2
2017-06-03T22:04:36.988Z,23.52
2017-06-03T22:07:01.282Z,23.55
2017-06-03T22:09:25.563Z,23.28
2017-06-03T22:11:49.894Z,23.37
2017-06-03T22:14:14.151Z,23.29
2017-06-03T22:16:38.442Z,23.26
2017-06-03T22:19:02.731Z,23.25
2017-06-03T22:21:27.002Z,22.71
2017-06-03T22:23:51.281Z,22.76
2017-06-03T22:26:15.574Z,22.68
2017-06-03T22:28:39.888Z,22.62
2017-06-03T22:30:50.267Z,22.76
2017-06-03T22:33:14.603Z,22.78
2017-06-03T22:35:38.917Z,22.65
2017-06-03T22:38:03.196Z,22.73
2017-06-03T22:40:27.486Z,22.56
2017-06-03T22:42:51.650Z,22.51
2017-06-03T22:45:15.836Z,22.74
2017-06-03T22:47:40.019Z,22.61
2017-06-03T22:49:55.830Z,22.4
2017-06-03T22:52:19.990Z,22.49
2017-06-03T22:54:44.174Z,22.47
2017-06-03T22:57:08.357Z,22.51
2017-06-03T22:59:32.542Z,22.68
2017-06-03T23:01:56.756Z,22.53
2017-06-03T23:04:02.023Z,22.67
2017-06-03T23:06:27.287Z,22.53
2017-06-03T23:08:51.484Z,22.63
2017-06-03T23:11:17.689Z,22.41
2017-06-03T23:13:57.545Z,22.26
2017-06-03T23:16:21.844Z,21.99
2017-06-03T23:18:47.981Z,22.25
2017-06-03T23:21:12.318Z,22.12
2017-06-03T23:23:28.964Z,22.28
2017-06-03T23:25:55.086Z,22.37
2017-06-03T23:28:27.983Z,22.12
2017-06-03T23:30:52.191Z,22
2017-06-03T23:33:17.374Z,22.38
2017-06-03T23:35:48.527Z,22.37
2017-06-03T23:38:12.704Z,22.36
2017-06-03T23:40:36.903Z,22.38
2017-06-03T23:43:02.117Z,22.4
2017-06-03T23:45:26.280Z,22.43
2017-06-03T23:47:52.519Z,22.38
2017-06-03T23:49:54.395Z,22.37
2017-06-03T23:52:10.161Z,22.22
2017-06-03T23:54:34.346Z,22.12
2017-06-03T23:56:58.563Z,22.19
2017-06-03T23:59:22.712Z,22.31
